sensor_id;sensor_type;location;lat;lon;timestamp;P1;durP1;ratioP1;P2;durP2;ratioP2
49039;SDS011;36811;49.732;13.402;2022-10-22T00:00:39;49.08;;;28.23;;
49039;SDS011;36811;49.732;13.402;2022-10-22T00:03:04;54.08;;;28.13;;
49039;SDS011;36811;49.732;13.402;2022-10-22T00:05:30;51.75;;;30.00;;
49039;SDS011;36811;49.732;13.402;2022-10-22T00:07:55;50.15;;;29.83;;
49039;SDS011;36811;49.732;13.402;2022-10-22T00:10:21;58.55;;;36.38;;
49039;SDS011;36811;49.732;13.402;2022-10-22T00:12:47;57.67;;;30.20;;
49039;SDS011;36811;49.732;13.402;2022-10-22T00:15:12;53.55;;;29.00;;
49039;SDS011;36811;49.732;13.402;2022-10-22T00:17:38;57.70;;;31.77;;
49039;SDS011;36811;49.732;13.402;2022-10-22T00:20:04;55.67;;;32.95;;
49039;SDS011;36811;49.732;13.402;2022-10-22T00:22:30;64.00;;;38.67;;
49039;SDS011;36811;49.732;13.402;2022-10-22T00:24:55;52.42;;;30.65;;
49039;SDS011;36811;49.732;13.402;2022-10-22T00:27:21;55.95;;;32.97;;
49039;SDS011;36811;49.732;13.402;2022-10-22T00:29:47;53.55;;;30.45;;
49039;SDS011;36811;49.732;13.402;2022-10-22T00:32:12;60.95;;;32.75;;
49039;SDS011;36811;49.732;13.402;2022-10-22T00:34:39;54.47;;;32.28;;
49039;SDS011;36811;49.732;13.402;2022-10-22T00:37:05;53.63;;;33.97;;
49039;SDS011;36811;49.732;13.402;2022-10-22T00:39:31;57.50;;;33.22;;
49039;SDS011;36811;49.732;13.402;2022-10-22T00:41:56;59.90;;;33.92;;
49039;SDS011;36811;49.732;13.402;2022-10-22T00:47:26;63.78;;;34.50;;
49039;SDS011;36811;49.732;13.402;2022-10-22T00:49:55;63.10;;;34.92;;
49039;SDS011;36811;49.732;13.402;2022-10-22T00:52:23;58.63;;;32.10;;
49039;SDS011;36811;49.732;13.402;2022-10-22T00:54:49;50.58;;;31.83;;
49039;SDS011;36811;49.732;13.402;2022-10-22T00:57:15;54.65;;;30.50;;
49039;SDS011;36811;49.732;13.402;2022-10-22T00:59:43;48.63;;;29.08;;
49039;SDS011;36811;49.732;13.402;2022-10-22T01:02:09;51.03;;;31.63;;
49039;SDS011;36811;49.732;13.402;2022-10-22T01:04:34;51.42;;;29.83;;
49039;SDS011;36811;49.732;13.402;2022-10-22T01:07:00;55.92;;;31.85;;
49039;SDS011;36811;49.732;13.402;2022-10-22T01:17:26;49.67;;;27.05;;
49039;SDS011;36811;49.732;13.402;2022-10-22T01:20:28;50.97;;;28.58;;
49039;SDS011;36811;49.732;13.402;2022-10-22T01:29:26;44.38;;;26.85;;
49039;SDS011;36811;49.732;13.402;2022-10-22T01:32:00;47.72;;;25.65;;
49039;SDS011;36811;49.732;13.402;2022-10-22T01:34:32;47.40;;;25.20;;
49039;SDS011;36811;49.732;13.402;2022-10-22T01:36:58;56.97;;;26.52;;
49039;SDS011;36811;49.732;13.402;2022-10-22T01:39:27;48.22;;;27.15;;
49039;SDS011;36811;49.732;13.402;2022-10-22T01:41:56;42.08;;;24.65;;
49039;SDS011;36811;49.732;13.402;2022-10-22T01:44:29;53.35;;;27.40;;
49039;SDS011;36811;49.732;13.402;2022-10-22T01:47:10;50.35;;;28.98;;
49039;SDS011;36811;49.732;13.402;2022-10-22T01:55:24;60.65;;;28.73;;
49039;SDS011;36811;49.732;13.402;2022-10-22T02:00:59;53.13;;;28.35;;
49039;SDS011;36811;49.732;13.402;2022-10-22T02:03:44;55.13;;;35.30;;
49039;SDS011;36811;49.732;13.402;2022-10-22T02:06:34;54.72;;;31.58;;
49039;SDS011;36811;49.732;13.402;2022-10-22T02:09:03;49.33;;;27.88;;
49039;SDS011;36811;49.732;13.402;2022-10-22T02:11:31;50.53;;;28.25;;
49039;SDS011;36811;49.732;13.402;2022-10-22T02:13:58;47.17;;;26.30;;
49039;SDS011;36811;49.732;13.402;2022-10-22T02:16:28;46.63;;;27.17;;
49039;SDS011;36811;49.732;13.402;2022-10-22T02:18:58;56.42;;;34.53;;
49039;SDS011;36811;49.732;13.402;2022-10-22T02:21:27;49.25;;;28.80;;
49039;SDS011;36811;49.732;13.402;2022-10-22T02:23:54;46.40;;;28.75;;
49039;SDS011;36811;49.732;13.402;2022-10-22T02:26:28;52.55;;;35.58;;
49039;SDS011;36811;49.732;13.402;2022-10-22T02:29:05;48.65;;;26.13;;
49039;SDS011;36811;49.732;13.402;2022-10-22T02:31:35;43.22;;;25.77;;
49039;SDS011;36811;49.732;13.402;2022-10-22T02:34:07;45.80;;;26.88;;
49039;SDS011;36811;49.732;13.402;2022-10-22T02:36:36;45.08;;;25.88;;
49039;SDS011;36811;49.732;13.402;2022-10-22T02:39:03;46.88;;;27.90;;
49039;SDS011;36811;49.732;13.402;2022-10-22T02:41:30;52.25;;;31.30;;
49039;SDS011;36811;49.732;13.402;2022-10-22T02:43:56;46.90;;;25.73;;
49039;SDS011;36811;49.732;13.402;2022-10-22T02:46:22;46.72;;;27.67;;
49039;SDS011;36811;49.732;13.402;2022-10-22T02:48:50;42.55;;;25.90;;
49039;SDS011;36811;49.732;13.402;2022-10-22T02:51:16;47.53;;;27.60;;
49039;SDS011;36811;49.732;13.402;2022-10-22T02:53:41;46.92;;;27.95;;
49039;SDS011;36811;49.732;13.402;2022-10-22T02:56:07;43.13;;;24.15;;
49039;SDS011;36811;49.732;13.402;2022-10-22T02:58:33;44.03;;;26.33;;
49039;SDS011;36811;49.732;13.402;2022-10-22T03:00:58;53.78;;;33.92;;
49039;SDS011;36811;49.732;13.402;2022-10-22T03:03:24;57.45;;;34.35;;
49039;SDS011;36811;49.732;13.402;2022-10-22T03:05:50;49.90;;;28.42;;
49039;SDS011;36811;49.732;13.402;2022-10-22T03:08:16;64.55;;;32.55;;
49039;SDS011;36811;49.732;13.402;2022-10-22T03:10:42;52.53;;;30.50;;
49039;SDS011;36811;49.732;13.402;2022-10-22T03:13:07;56.65;;;36.05;;
49039;SDS011;36811;49.732;13.402;2022-10-22T03:15:33;49.22;;;25.73;;
49039;SDS011;36811;49.732;13.402;2022-10-22T03:17:59;55.22;;;27.95;;
49039;SDS011;36811;49.732;13.402;2022-10-22T03:20:25;50.17;;;28.25;;
49039;SDS011;36811;49.732;13.402;2022-10-22T03:22:50;54.33;;;26.15;;
49039;SDS011;36811;49.732;13.402;2022-10-22T03:25:18;58.60;;;30.33;;
49039;SDS011;36811;49.732;13.402;2022-10-22T03:27:47;60.97;;;31.20;;
49039;SDS011;36811;49.732;13.402;2022-10-22T03:30:16;62.38;;;30.85;;
49039;SDS011;36811;49.732;13.402;2022-10-22T03:32:42;56.55;;;32.20;;
49039;SDS011;36811;49.732;13.402;2022-10-22T03:35:08;55.45;;;30.13;;
49039;SDS011;36811;49.732;13.402;2022-10-22T03:37:33;57.05;;;28.23;;
49039;SDS011;36811;49.732;13.402;2022-10-22T03:40:01;56.58;;;30.75;;
49039;SDS011;36811;49.732;13.402;2022-10-22T03:42:29;66.78;;;31.98;;
49039;SDS011;36811;49.732;13.402;2022-10-22T03:44:54;61.45;;;31.40;;
49039;SDS011;36811;49.732;13.402;2022-10-22T03:47:20;51.58;;;27.83;;
49039;SDS011;36811;49.732;13.402;2022-10-22T03:49:49;59.10;;;28.98;;
49039;SDS011;36811;49.732;13.402;2022-10-22T03:52:15;53.50;;;32.70;;
49039;SDS011;36811;49.732;13.402;2022-10-22T03:54:41;64.43;;;31.23;;
49039;SDS011;36811;49.732;13.402;2022-10-22T03:57:07;67.07;;;33.38;;
49039;SDS011;36811;49.732;13.402;2022-10-22T03:59:34;51.88;;;25.88;;
49039;SDS011;36811;49.732;13.402;2022-10-22T04:02:04;49.00;;;23.98;;
49039;SDS011;36811;49.732;13.402;2022-10-22T04:04:30;60.38;;;33.75;;
49039;SDS011;36811;49.732;13.402;2022-10-22T04:06:56;62.90;;;32.80;;
49039;SDS011;36811;49.732;13.402;2022-10-22T04:09:22;59.20;;;31.27;;
49039;SDS011;36811;49.732;13.402;2022-10-22T04:11:47;67.05;;;32.85;;
49039;SDS011;36811;49.732;13.402;2022-10-22T04:14:13;62.47;;;33.17;;
49039;SDS011;36811;49.732;13.402;2022-10-22T04:16:39;73.50;;;35.17;;
49039;SDS011;36811;49.732;13.402;2022-10-22T04:19:05;70.38;;;34.15;;
49039;SDS011;36811;49.732;13.402;2022-10-22T04:21:32;117.47;;;39.50;;
49039;SDS011;36811;49.732;13.402;2022-10-22T04:23:58;109.82;;;40.78;;
49039;SDS011;36811;49.732;13.402;2022-10-22T04:26:24;97.90;;;40.22;;
49039;SDS011;36811;49.732;13.402;2022-10-22T04:28:50;108.72;;;39.30;;
49039;SDS011;36811;49.732;13.402;2022-10-22T04:31:18;130.00;;;47.35;;
49039;SDS011;36811;49.732;13.402;2022-10-22T04:33:45;90.20;;;38.75;;
49039;SDS011;36811;49.732;13.402;2022-10-22T04:36:13;81.43;;;35.35;;
49039;SDS011;36811;49.732;13.402;2022-10-22T04:38:41;107.10;;;39.42;;
49039;SDS011;36811;49.732;13.402;2022-10-22T04:41:09;126.47;;;47.38;;
49039;SDS011;36811;49.732;13.402;2022-10-22T04:43:37;159.30;;;53.15;;
49039;SDS011;36811;49.732;13.402;2022-10-22T04:46:03;110.93;;;33.60;;
49039;SDS011;36811;49.732;13.402;2022-10-22T04:48:29;78.72;;;39.90;;
49039;SDS011;36811;49.732;13.402;2022-10-22T04:50:56;134.70;;;55.22;;
49039;SDS011;36811;49.732;13.402;2022-10-22T04:53:22;95.88;;;46.13;;
49039;SDS011;36811;49.732;13.402;2022-10-22T04:55:48;101.13;;;46.92;;
49039;SDS011;36811;49.732;13.402;2022-10-22T04:58:14;89.07;;;43.55;;
49039;SDS011;36811;49.732;13.402;2022-10-22T05:00:39;82.72;;;40.83;;
49039;SDS011;36811;49.732;13.402;2022-10-22T05:03:05;148.43;;;57.60;;
49039;SDS011;36811;49.732;13.402;2022-10-22T05:05:31;113.25;;;49.97;;
49039;SDS011;36811;49.732;13.402;2022-10-22T05:07:57;164.65;;;71.85;;
49039;SDS011;36811;49.732;13.402;2022-10-22T05:10:23;95.47;;;42.42;;
49039;SDS011;36811;49.732;13.402;2022-10-22T05:12:48;194.95;;;64.50;;
49039;SDS011;36811;49.732;13.402;2022-10-22T05:15:14;105.18;;;45.45;;
49039;SDS011;36811;49.732;13.402;2022-10-22T05:17:40;103.22;;;43.83;;
49039;SDS011;36811;49.732;13.402;2022-10-22T05:20:06;108.13;;;47.45;;
49039;SDS011;36811;49.732;13.402;2022-10-22T05:22:32;191.90;;;56.58;;
49039;SDS011;36811;49.732;13.402;2022-10-22T05:24:59;156.38;;;51.72;;
49039;SDS011;36811;49.732;13.402;2022-10-22T05:27:25;155.60;;;51.17;;
49039;SDS011;36811;49.732;13.402;2022-10-22T05:29:51;216.88;;;63.00;;
49039;SDS011;36811;49.732;13.402;2022-10-22T05:32:16;237.00;;;67.95;;
49039;SDS011;36811;49.732;13.402;2022-10-22T05:34:42;257.10;;;65.38;;
49039;SDS011;36811;49.732;13.402;2022-10-22T05:37:08;176.98;;;54.75;;
49039;SDS011;36811;49.732;13.402;2022-10-22T05:39:33;193.95;;;55.83;;
49039;SDS011;36811;49.732;13.402;2022-10-22T05:42:01;230.38;;;63.83;;
49039;SDS011;36811;49.732;13.402;2022-10-22T05:44:28;172.70;;;53.38;;
49039;SDS011;36811;49.732;13.402;2022-10-22T05:46:53;171.23;;;55.15;;
49039;SDS011;36811;49.732;13.402;2022-10-22T05:49:19;235.77;;;70.88;;
49039;SDS011;36811;49.732;13.402;2022-10-22T05:51:44;201.77;;;59.65;;
49039;SDS011;36811;49.732;13.402;2022-10-22T05:54:15;126.95;;;45.53;;
49039;SDS011;36811;49.732;13.402;2022-10-22T05:56:46;99.23;;;43.77;;
49039;SDS011;36811;49.732;13.402;2022-10-22T05:59:12;152.68;;;54.40;;
49039;SDS011;36811;49.732;13.402;2022-10-22T06:01:39;194.52;;;71.20;;
49039;SDS011;36811;49.732;13.402;2022-10-22T06:04:06;225.98;;;71.38;;
49039;SDS011;36811;49.732;13.402;2022-10-22T06:09:06;144.73;;;56.70;;
49039;SDS011;36811;49.732;13.402;2022-10-22T06:11:32;244.38;;;66.78;;
49039;SDS011;36811;49.732;13.402;2022-10-22T06:13:57;192.05;;;60.35;;
49039;SDS011;36811;49.732;13.402;2022-10-22T06:16:23;261.13;;;69.55;;
49039;SDS011;36811;49.732;13.402;2022-10-22T06:18:49;121.88;;;50.92;;
49039;SDS011;36811;49.732;13.402;2022-10-22T06:21:14;169.70;;;49.10;;
49039;SDS011;36811;49.732;13.402;2022-10-22T06:23:41;60.30;;;28.50;;
49039;SDS011;36811;49.732;13.402;2022-10-22T06:26:08;134.40;;;47.15;;
49039;SDS011;36811;49.732;13.402;2022-10-22T06:28:35;171.98;;;54.40;;
49039;SDS011;36811;49.732;13.402;2022-10-22T06:31:02;104.35;;;44.63;;
49039;SDS011;36811;49.732;13.402;2022-10-22T06:33:28;78.65;;;33.17;;
49039;SDS011;36811;49.732;13.402;2022-10-22T06:36:06;64.05;;;27.73;;
49039;SDS011;36811;49.732;13.402;2022-10-22T06:38:42;106.83;;;37.70;;
49039;SDS011;36811;49.732;13.402;2022-10-22T06:41:09;114.50;;;41.80;;
49039;SDS011;36811;49.732;13.402;2022-10-22T06:43:40;66.00;;;33.35;;
49039;SDS011;36811;49.732;13.402;2022-10-22T06:46:09;91.00;;;39.90;;
49039;SDS011;36811;49.732;13.402;2022-10-22T06:48:39;113.82;;;42.92;;
49039;SDS011;36811;49.732;13.402;2022-10-22T06:51:09;103.97;;;41.83;;
49039;SDS011;36811;49.732;13.402;2022-10-22T06:53:36;218.48;;;67.13;;
49039;SDS011;36811;49.732;13.402;2022-10-22T06:56:14;258.75;;;77.13;;
49039;SDS011;36811;49.732;13.402;2022-10-22T06:58:42;215.93;;;63.55;;
49039;SDS011;36811;49.732;13.402;2022-10-22T07:01:12;208.07;;;61.50;;
49039;SDS011;36811;49.732;13.402;2022-10-22T07:03:39;112.53;;;42.92;;
49039;SDS011;36811;49.732;13.402;2022-10-22T07:06:07;123.47;;;44.08;;
49039;SDS011;36811;49.732;13.402;2022-10-22T07:08:35;174.27;;;52.35;;
49039;SDS011;36811;49.732;13.402;2022-10-22T07:11:21;219.57;;;58.17;;
49039;SDS011;36811;49.732;13.402;2022-10-22T07:13:48;219.57;;;62.00;;
49039;SDS011;36811;49.732;13.402;2022-10-22T07:16:15;231.45;;;59.72;;
49039;SDS011;36811;49.732;13.402;2022-10-22T07:18:42;133.68;;;48.60;;
49039;SDS011;36811;49.732;13.402;2022-10-22T07:21:10;160.07;;;53.13;;
49039;SDS011;36811;49.732;13.402;2022-10-22T07:23:37;198.95;;;58.65;;
49039;SDS011;36811;49.732;13.402;2022-10-22T07:26:04;222.63;;;61.50;;
49039;SDS011;36811;49.732;13.402;2022-10-22T07:28:34;218.55;;;59.95;;
49039;SDS011;36811;49.732;13.402;2022-10-22T07:31:02;163.70;;;52.65;;
49039;SDS011;36811;49.732;13.402;2022-10-22T07:33:28;181.05;;;55.22;;
49039;SDS011;36811;49.732;13.402;2022-10-22T07:35:57;293.95;;;70.63;;
49039;SDS011;36811;49.732;13.402;2022-10-22T07:38:24;189.80;;;54.05;;
49039;SDS011;36811;49.732;13.402;2022-10-22T07:40:50;194.23;;;55.25;;
49039;SDS011;36811;49.732;13.402;2022-10-22T07:43:16;161.70;;;50.75;;
49039;SDS011;36811;49.732;13.402;2022-10-22T07:45:41;196.30;;;57.47;;
49039;SDS011;36811;49.732;13.402;2022-10-22T07:48:07;232.00;;;61.22;;
49039;SDS011;36811;49.732;13.402;2022-10-22T07:50:32;177.25;;;56.05;;
49039;SDS011;36811;49.732;13.402;2022-10-22T07:52:58;230.32;;;57.50;;
49039;SDS011;36811;49.732;13.402;2022-10-22T07:55:24;120.47;;;44.92;;
49039;SDS011;36811;49.732;13.402;2022-10-22T07:57:50;268.75;;;64.57;;
49039;SDS011;36811;49.732;13.402;2022-10-22T08:00:15;269.65;;;61.88;;
49039;SDS011;36811;49.732;13.402;2022-10-22T08:02:41;430.52;;;132.38;;
49039;SDS011;36811;49.732;13.402;2022-10-22T08:05:07;127.63;;;47.13;;
49039;SDS011;36811;49.732;13.402;2022-10-22T08:07:33;271.20;;;62.47;;
49039;SDS011;36811;49.732;13.402;2022-10-22T08:09:58;264.83;;;62.00;;
49039;SDS011;36811;49.732;13.402;2022-10-22T08:12:24;186.73;;;56.85;;
49039;SDS011;36811;49.732;13.402;2022-10-22T08:14:50;232.02;;;63.33;;
49039;SDS011;36811;49.732;13.402;2022-10-22T08:17:15;220.95;;;60.80;;
49039;SDS011;36811;49.732;13.402;2022-10-22T08:19:41;229.13;;;60.28;;
49039;SDS011;36811;49.732;13.402;2022-10-22T08:22:06;172.32;;;51.97;;
49039;SDS011;36811;49.732;13.402;2022-10-22T08:24:32;161.32;;;51.40;;
49039;SDS011;36811;49.732;13.402;2022-10-22T08:26:58;216.15;;;58.55;;
49039;SDS011;36811;49.732;13.402;2022-10-22T08:29:24;242.95;;;61.45;;
49039;SDS011;36811;49.732;13.402;2022-10-22T08:31:53;104.15;;;40.63;;
49039;SDS011;36811;49.732;13.402;2022-10-22T08:34:19;137.48;;;45.22;;
49039;SDS011;36811;49.732;13.402;2022-10-22T08:36:45;79.18;;;35.10;;
49039;SDS011;36811;49.732;13.402;2022-10-22T08:39:11;90.75;;;37.88;;
49039;SDS011;36811;49.732;13.402;2022-10-22T08:50:40;70.20;;;30.13;;
49039;SDS011;36811;49.732;13.402;2022-10-22T08:53:14;57.25;;;24.65;;
49039;SDS011;36811;49.732;13.402;2022-10-22T08:55:42;48.75;;;22.60;;
49039;SDS011;36811;49.732;13.402;2022-10-22T09:01:04;72.40;;;29.15;;
49039;SDS011;36811;49.732;13.402;2022-10-22T09:04:10;58.70;;;27.33;;
49039;SDS011;36811;49.732;13.402;2022-10-22T09:06:46;60.78;;;27.40;;
49039;SDS011;36811;49.732;13.402;2022-10-22T09:09:16;53.67;;;25.83;;
49039;SDS011;36811;49.732;13.402;2022-10-22T09:11:43;56.33;;;25.58;;
49039;SDS011;36811;49.732;13.402;2022-10-22T09:14:16;62.40;;;28.25;;
49039;SDS011;36811;49.732;13.402;2022-10-22T09:25:23;24.10;;;13.55;;
49039;SDS011;36811;49.732;13.402;2022-10-22T09:27:51;19.98;;;12.00;;
49039;SDS011;36811;49.732;13.402;2022-10-22T09:30:35;25.83;;;12.80;;
49039;SDS011;36811;49.732;13.402;2022-10-22T09:35:45;16.50;;;9.68;;
49039;SDS011;36811;49.732;13.402;2022-10-22T09:38:12;15.18;;;9.50;;
49039;SDS011;36811;49.732;13.402;2022-10-22T09:40:43;13.30;;;6.50;;
49039;SDS011;36811;49.732;13.402;2022-10-22T09:43:12;8.77;;;5.30;;
49039;SDS011;36811;49.732;13.402;2022-10-22T09:45:41;8.88;;;5.00;;
49039;SDS011;36811;49.732;13.402;2022-10-22T09:48:10;6.78;;;4.65;;
49039;SDS011;36811;49.732;13.402;2022-10-22T09:50:45;12.80;;;6.00;;
49039;SDS011;36811;49.732;13.402;2022-10-22T09:55:52;13.23;;;4.18;;
49039;SDS011;36811;49.732;13.402;2022-10-22T09:58:20;15.60;;;4.70;;
49039;SDS011;36811;49.732;13.402;2022-10-22T10:00:49;11.60;;;4.57;;
49039;SDS011;36811;49.732;13.402;2022-10-22T10:03:24;6.70;;;2.95;;
49039;SDS011;36811;49.732;13.402;2022-10-22T10:05:53;9.80;;;4.43;;
49039;SDS011;36811;49.732;13.402;2022-10-22T10:08:22;9.68;;;4.57;;
49039;SDS011;36811;49.732;13.402;2022-10-22T10:10:50;9.00;;;4.22;;
49039;SDS011;36811;49.732;13.402;2022-10-22T10:27:24;6.32;;;3.55;;
49039;SDS011;36811;49.732;13.402;2022-10-22T10:41:49;8.30;;;3.90;;
49039;SDS011;36811;49.732;13.402;2022-10-22T10:49:18;9.05;;;3.70;;
49039;SDS011;36811;49.732;13.402;2022-10-22T10:52:05;6.57;;;2.72;;
49039;SDS011;36811;49.732;13.402;2022-10-22T10:57:12;9.73;;;3.15;;
49039;SDS011;36811;49.732;13.402;2022-10-22T11:00:04;6.60;;;3.03;;
49039;SDS011;36811;49.732;13.402;2022-10-22T11:13:49;4.57;;;2.60;;
49039;SDS011;36811;49.732;13.402;2022-10-22T11:16:35;6.82;;;3.10;;
49039;SDS011;36811;49.732;13.402;2022-10-22T11:19:10;8.00;;;3.15;;
49039;SDS011;36811;49.732;13.402;2022-10-22T11:24:45;5.80;;;3.05;;
49039;SDS011;36811;49.732;13.402;2022-10-22T11:27:35;3.75;;;2.30;;
49039;SDS011;36811;49.732;13.402;2022-10-22T11:30:16;6.28;;;3.33;;
49039;SDS011;36811;49.732;13.402;2022-10-22T11:32:56;8.93;;;2.85;;
49039;SDS011;36811;49.732;13.402;2022-10-22T11:35:27;5.07;;;2.60;;
49039;SDS011;36811;49.732;13.402;2022-10-22T11:37:59;5.53;;;2.67;;
49039;SDS011;36811;49.732;13.402;2022-10-22T11:42:53;5.20;;;2.55;;
49039;SDS011;36811;49.732;13.402;2022-10-22T11:47:52;5.22;;;2.58;;
49039;SDS011;36811;49.732;13.402;2022-10-22T11:50:54;7.50;;;3.55;;
49039;SDS011;36811;49.732;13.402;2022-10-22T12:16:39;4.18;;;1.88;;
49039;SDS011;36811;49.732;13.402;2022-10-22T12:21:35;4.15;;;2.10;;
49039;SDS011;36811;49.732;13.402;2022-10-22T12:24:03;4.30;;;1.85;;
49039;SDS011;36811;49.732;13.402;2022-10-22T12:26:32;1.77;;;1.35;;
49039;SDS011;36811;49.732;13.402;2022-10-22T12:29:01;3.90;;;1.90;;
49039;SDS011;36811;49.732;13.402;2022-10-22T12:31:35;4.57;;;1.75;;
49039;SDS011;36811;49.732;13.402;2022-10-22T12:34:03;3.33;;;1.88;;
49039;SDS011;36811;49.732;13.402;2022-10-22T12:36:31;4.22;;;2.00;;
49039;SDS011;36811;49.732;13.402;2022-10-22T12:38:59;2.80;;;1.80;;
49039;SDS011;36811;49.732;13.402;2022-10-22T12:41:30;8.73;;;1.63;;
49039;SDS011;36811;49.732;13.402;2022-10-22T12:44:02;4.53;;;1.80;;
49039;SDS011;36811;49.732;13.402;2022-10-22T12:46:31;5.45;;;1.70;;
49039;SDS011;36811;49.732;13.402;2022-10-22T12:48:59;5.80;;;1.85;;
49039;SDS011;36811;49.732;13.402;2022-10-22T12:51:26;4.07;;;1.88;;
49039;SDS011;36811;49.732;13.402;2022-10-22T12:53:55;8.50;;;2.50;;
49039;SDS011;36811;49.732;13.402;2022-10-22T12:56:27;2.65;;;1.50;;
49039;SDS011;36811;49.732;13.402;2022-10-22T12:59:02;2.80;;;1.50;;
49039;SDS011;36811;49.732;13.402;2022-10-22T13:01:33;3.38;;;1.83;;
49039;SDS011;36811;49.732;13.402;2022-10-22T13:04:17;2.28;;;1.42;;
49039;SDS011;36811;49.732;13.402;2022-10-22T13:09:39;5.00;;;1.85;;
49039;SDS011;36811;49.732;13.402;2022-10-22T13:12:08;7.07;;;2.03;;
49039;SDS011;36811;49.732;13.402;2022-10-22T13:14:38;3.75;;;1.10;;
49039;SDS011;36811;49.732;13.402;2022-10-22T13:17:06;2.88;;;1.35;;
49039;SDS011;36811;49.732;13.402;2022-10-22T13:19:40;6.32;;;1.85;;
49039;SDS011;36811;49.732;13.402;2022-10-22T13:26:18;3.22;;;1.50;;
49039;SDS011;36811;49.732;13.402;2022-10-22T13:28:26;4.72;;;1.65;;
49039;SDS011;36811;49.732;13.402;2022-10-22T13:30:55;5.15;;;1.58;;
49039;SDS011;36811;49.732;13.402;2022-10-22T13:33:32;1.70;;;1.33;;
49039;SDS011;36811;49.732;13.402;2022-10-22T13:36:01;4.53;;;1.33;;
49039;SDS011;36811;49.732;13.402;2022-10-22T13:38:28;7.28;;;1.65;;
49039;SDS011;36811;49.732;13.402;2022-10-22T13:40:55;7.60;;;2.28;;
49039;SDS011;36811;49.732;13.402;2022-10-22T13:43:21;5.55;;;1.50;;
49039;SDS011;36811;49.732;13.402;2022-10-22T13:45:51;4.45;;;1.88;;
49039;SDS011;36811;49.732;13.402;2022-10-22T13:48:19;3.03;;;1.40;;
49039;SDS011;36811;49.732;13.402;2022-10-22T13:50:47;3.75;;;1.40;;
49039;SDS011;36811;49.732;13.402;2022-10-22T13:53:14;2.70;;;1.60;;
49039;SDS011;36811;49.732;13.402;2022-10-22T13:55:46;5.38;;;1.63;;
49039;SDS011;36811;49.732;13.402;2022-10-22T13:58:19;5.80;;;1.42;;
49039;SDS011;36811;49.732;13.402;2022-10-22T14:00:49;3.35;;;1.75;;
49039;SDS011;36811;49.732;13.402;2022-10-22T14:03:20;2.22;;;1.40;;
49039;SDS011;36811;49.732;13.402;2022-10-22T14:05:49;3.58;;;1.17;;
49039;SDS011;36811;49.732;13.402;2022-10-22T14:08:16;2.15;;;1.33;;
49039;SDS011;36811;49.732;13.402;2022-10-22T14:10:44;3.53;;;1.63;;
49039;SDS011;36811;49.732;13.402;2022-10-22T14:13:11;2.65;;;1.38;;
49039;SDS011;36811;49.732;13.402;2022-10-22T14:15:38;6.07;;;1.55;;
49039;SDS011;36811;49.732;13.402;2022-10-22T14:18:05;1.90;;;1.50;;
49039;SDS011;36811;49.732;13.402;2022-10-22T14:20:33;3.55;;;1.58;;
49039;SDS011;36811;49.732;13.402;2022-10-22T14:23:06;6.15;;;1.65;;
49039;SDS011;36811;49.732;13.402;2022-10-22T14:25:39;3.00;;;1.70;;
49039;SDS011;36811;49.732;13.402;2022-10-22T14:28:05;3.47;;;1.55;;
49039;SDS011;36811;49.732;13.402;2022-10-22T14:30:31;4.25;;;1.88;;
49039;SDS011;36811;49.732;13.402;2022-10-22T14:32:57;4.30;;;1.92;;
49039;SDS011;36811;49.732;13.402;2022-10-22T14:35:23;3.72;;;1.98;;
49039;SDS011;36811;49.732;13.402;2022-10-22T14:37:49;3.90;;;2.35;;
49039;SDS011;36811;49.732;13.402;2022-10-22T14:40:17;4.15;;;2.00;;
49039;SDS011;36811;49.732;13.402;2022-10-22T14:42:44;6.47;;;2.60;;
49039;SDS011;36811;49.732;13.402;2022-10-22T14:45:23;4.03;;;2.60;;
49039;SDS011;36811;49.732;13.402;2022-10-22T14:47:51;10.15;;;2.20;;
49039;SDS011;36811;49.732;13.402;2022-10-22T14:50:22;3.88;;;2.15;;
49039;SDS011;36811;49.732;13.402;2022-10-22T14:52:49;3.97;;;2.00;;
49039;SDS011;36811;49.732;13.402;2022-10-22T14:55:16;5.30;;;1.98;;
49039;SDS011;36811;49.732;13.402;2022-10-22T14:57:44;5.38;;;1.80;;
49039;SDS011;36811;49.732;13.402;2022-10-22T15:00:11;4.25;;;1.80;;
49039;SDS011;36811;49.732;13.402;2022-10-22T15:02:39;5.65;;;2.33;;
49039;SDS011;36811;49.732;13.402;2022-10-22T15:05:05;2.97;;;1.83;;
49039;SDS011;36811;49.732;13.402;2022-10-22T15:07:31;6.95;;;2.22;;
49039;SDS011;36811;49.732;13.402;2022-10-22T15:09:56;5.50;;;2.47;;
49039;SDS011;36811;49.732;13.402;2022-10-22T15:12:22;5.25;;;2.50;;
49039;SDS011;36811;49.732;13.402;2022-10-22T15:14:48;5.78;;;2.10;;
49039;SDS011;36811;49.732;13.402;2022-10-22T15:17:15;9.23;;;2.75;;
49039;SDS011;36811;49.732;13.402;2022-10-22T15:19:41;5.13;;;2.25;;
49039;SDS011;36811;49.732;13.402;2022-10-22T15:22:08;4.28;;;2.30;;
49039;SDS011;36811;49.732;13.402;2022-10-22T15:24:35;11.73;;;4.30;;
49039;SDS011;36811;49.732;13.402;2022-10-22T15:27:00;6.25;;;2.78;;
49039;SDS011;36811;49.732;13.402;2022-10-22T15:29:28;7.80;;;2.83;;
49039;SDS011;36811;49.732;13.402;2022-10-22T15:31:55;4.18;;;2.22;;
49039;SDS011;36811;49.732;13.402;2022-10-22T15:34:29;5.38;;;3.00;;
49039;SDS011;36811;49.732;13.402;2022-10-22T15:36:59;4.93;;;2.28;;
49039;SDS011;36811;49.732;13.402;2022-10-22T15:39:26;8.38;;;2.65;;
49039;SDS011;36811;49.732;13.402;2022-10-22T15:41:52;6.28;;;2.38;;
49039;SDS011;36811;49.732;13.402;2022-10-22T15:44:20;5.18;;;2.30;;
49039;SDS011;36811;49.732;13.402;2022-10-22T15:46:48;8.93;;;2.95;;
49039;SDS011;36811;49.732;13.402;2022-10-22T15:49:15;5.80;;;2.55;;
49039;SDS011;36811;49.732;13.402;2022-10-22T15:51:41;9.43;;;2.72;;
49039;SDS011;36811;49.732;13.402;2022-10-22T15:54:09;5.18;;;2.00;;
49039;SDS011;36811;49.732;13.402;2022-10-22T15:56:38;7.63;;;2.47;;
49039;SDS011;36811;49.732;13.402;2022-10-22T15:59:04;9.45;;;3.30;;
49039;SDS011;36811;49.732;13.402;2022-10-22T16:01:31;6.68;;;2.85;;
49039;SDS011;36811;49.732;13.402;2022-10-22T16:03:58;8.95;;;3.30;;
49039;SDS011;36811;49.732;13.402;2022-10-22T16:06:42;7.00;;;3.10;;
49039;SDS011;36811;49.732;13.402;2022-10-22T16:09:12;15.45;;;5.47;;
49039;SDS011;36811;49.732;13.402;2022-10-22T16:11:42;11.25;;;4.18;;
49039;SDS011;36811;49.732;13.402;2022-10-22T16:14:12;11.27;;;3.20;;
49039;SDS011;36811;49.732;13.402;2022-10-22T16:16:43;11.40;;;4.20;;
49039;SDS011;36811;49.732;13.402;2022-10-22T16:19:10;6.93;;;4.00;;
49039;SDS011;36811;49.732;13.402;2022-10-22T16:21:37;9.55;;;5.00;;
49039;SDS011;36811;49.732;13.402;2022-10-22T16:24:03;15.77;;;5.38;;
49039;SDS011;36811;49.732;13.402;2022-10-22T16:26:30;12.65;;;4.72;;
49039;SDS011;36811;49.732;13.402;2022-10-22T16:28:56;10.80;;;4.57;;
49039;SDS011;36811;49.732;13.402;2022-10-22T16:31:23;12.52;;;5.60;;
49039;SDS011;36811;49.732;13.402;2022-10-22T16:33:48;11.02;;;4.53;;
49039;SDS011;36811;49.732;13.402;2022-10-22T16:36:15;9.93;;;4.78;;
49039;SDS011;36811;49.732;13.402;2022-10-22T16:38:45;10.25;;;4.97;;
49039;SDS011;36811;49.732;13.402;2022-10-22T16:41:15;11.30;;;5.50;;